Time,TemperatureF,DewpointF,PressureIn,WindDirection,WindDirectionDegrees,WindSpeedMPH,WindSpeedGustMPH,Humidity,HourlyPrecipIn,Conditions,Clouds,dailyrainin,SoftwareType,DateUTC
2018-02-18 00:00:00,38.7,30.4,30.01,SW,216,0.0,0.0,72,0.00,,,0.01,Wunderground v.1.15,2018-02-18 07:00:00,
2018-02-18 00:10:00,38.5,30.6,30.01,SW,216,0.0,0.0,73,0.00,,,0.00,Wunderground v.1.15,2018-02-18 07:10:00,
2018-02-18 00:15:00,38.5,30.6,30.01,SW,216,0.0,0.0,73,0.00,,,0.00,Wunderground v.1.15,2018-02-18 07:15:00,
2018-02-18 00:20:00,38.3,30.4,30.01,SW,216,0.0,0.0,73,0.00,,,0.00,Wunderground v.1.15,2018-02-18 07:20:00,
2018-02-18 00:25:00,38.1,30.2,30.00,SW,216,0.0,0.0,73,0.00,,,0.00,Wunderground v.1.15,2018-02-18 07:25:00,
2018-02-18 00:30:00,37.8,30.3,30.01,SW,216,0.0,0.0,74,0.00,,,0.00,Wunderground v.1.15,2018-02-18 07:30:00,
2018-02-18 00:35:00,37.6,30.1,30.01,SW,216,0.0,0.0,74,0.00,,,0.00,Wunderground v.1.15,2018-02-18 07:35:00,
2018-02-18 00:45:00,37.0,29.8,30.00,SW,216,0.0,0.0,75,0.00,,,0.00,Wunderground v.1.15,2018-02-18 07:45:00,
2018-02-18 00:50:00,36.4,29.6,30.00,SW,216,0.0,0.0,76,0.00,,,0.00,Wunderground v.1.15,2018-02-18 07:50:00,
2018-02-18 00:55:00,36.0,29.8,30.01,SW,216,0.0,0.0,78,0.00,,,0.00,Wunderground v.1.15,2018-02-18 07:55:00,
2018-02-18 01:00:00,35.6,29.7,30.00,SW,216,0.0,0.0,79,0.00,,,0.00,Wunderground v.1.15,2018-02-18 08:00:00,
2018-02-18 01:10:00,35.0,29.8,30.00,SW,216,0.0,0.0,81,0.00,,,0.00,Wunderground v.1.15,2018-02-18 08:10:00,
2018-02-18 01:15:00,34.7,29.2,30.00,SW,216,0.0,0.0,80,0.00,,,0.00,Wunderground v.1.15,2018-02-18 08:15:00,
2018-02-18 01:20:00,34.4,29.2,30.00,SW,216,0.0,0.0,81,0.00,,,0.00,Wunderground v.1.15,2018-02-18 08:20:00,
2018-02-18 01:25:00,34.1,28.9,30.01,SW,216,0.0,0.0,81,0.00,,,0.00,Wunderground v.1.15,2018-02-18 08:25:00,
2018-02-18 01:30:00,33.9,29.3,30.01,SW,216,0.0,0.0,83,0.00,,,0.00,Wunderground v.1.15,2018-02-18 08:30:00,
2018-02-18 01:35:00,33.9,29.3,30.00,SW,216,0.0,0.0,83,0.00,,,0.00,Wunderground v.1.15,2018-02-18 08:35:00,
2018-02-18 01:40:00,33.8,29.5,30.01,SW,216,0.0,0.0,84,0.00,,,0.00,Wunderground v.1.15,2018-02-18 08:40:00,
2018-02-18 01:50:00,33.9,29.9,30.00,SW,216,0.0,0.0,85,0.00,,,0.00,Wunderground v.1.15,2018-02-18 08:50:00,
2018-02-18 01:55:00,33.9,29.9,29.99,SW,216,0.0,0.0,85,0.00,,,0.00,Wunderground v.1.15,2018-02-18 08:55:00,
2018-02-18 02:00:00,33.8,29.5,29.99,SW,216,0.0,0.0,84,0.00,,,0.00,Wunderground v.1.15,2018-02-18 09:00:00,
2018-02-18 02:10:00,33.9,29.9,29.99,SW,216,0.0,0.0,85,0.00,,,0.00,Wunderground v.1.15,2018-02-18 09:10:00,
2018-02-18 02:15:00,33.9,29.6,29.99,SW,216,0.0,0.0,84,0.00,,,0.00,Wunderground v.1.15,2018-02-18 09:15:00,
2018-02-18 02:25:00,34.1,29.8,29.99,SW,216,0.0,0.0,84,0.00,,,0.00,Wunderground v.1.15,2018-02-18 09:25:00,
2018-02-18 02:30:00,34.0,29.4,29.98,SW,216,0.0,0.0,83,0.00,,,0.00,Wunderground v.1.15,2018-02-18 09:30:00,
2018-02-18 02:35:00,33.7,29.1,29.98,SW,216,0.0,0.0,83,0.00,,,0.00,Wunderground v.1.15,2018-02-18 09:35:00,
2018-02-18 02:40:00,33.5,29.2,29.98,SW,216,0.0,0.0,84,0.00,,,0.00,Wunderground v.1.15,2018-02-18 09:40:00,
2018-02-18 02:45:00,33.6,29.6,29.97,SW,216,0.0,0.0,85,0.00,,,0.00,Wunderground v.1.15,2018-02-18 09:45:00,
2018-02-18 02:55:00,33.6,29.3,29.97,SW,216,0.0,0.0,84,0.00,,,0.00,Wunderground v.1.15,2018-02-18 09:55:00,
2018-02-18 03:00:00,33.5,29.2,29.97,SW,216,0.0,0.0,84,0.00,,,0.00,Wunderground v.1.15,2018-02-18 10:00:00,
2018-02-18 03:10:00,33.2,28.9,29.96,SW,216,0.0,0.0,84,0.00,,,0.00,Wunderground v.1.15,2018-02-18 10:10:00,
2018-02-18 03:15:00,33.2,29.2,29.96,SW,216,0.0,0.0,85,0.00,,,0.00,Wunderground v.1.15,2018-02-18 10:15:00,
2018-02-18 03:20:00,33.3,29.6,29.96,SW,216,0.0,0.0,86,0.00,,,0.00,Wunderground v.1.15,2018-02-18 10:20:00,
2018-02-18 03:25:00,33.7,29.7,29.96,SW,216,0.0,0.0,85,0.00,,,0.00,Wunderground v.1.15,2018-02-18 10:25:00,
2018-02-18 03:30:00,33.7,29.4,29.96,SW,216,0.0,0.0,84,0.00,,,0.00,Wunderground v.1.15,2018-02-18 10:30:00,
2018-02-18 03:35:00,33.7,29.7,29.95,SW,216,0.0,0.0,85,0.00,,,0.00,Wunderground v.1.15,2018-02-18 10:35:00,
2018-02-18 03:40:00,33.5,29.2,29.95,SW,216,0.0,0.0,84,0.00,,,0.00,Wunderground v.1.15,2018-02-18 10:40:00,
2018-02-18 03:45:00,33.4,29.4,29.96,SW,216,0.0,0.0,85,0.00,,,0.00,Wunderground v.1.15,2018-02-18 10:45:00,
2018-02-18 03:55:00,33.7,30.0,29.96,SW,216,0.0,0.0,86,0.00,,,0.00,Wunderground v.1.15,2018-02-18 10:55:00,
2018-02-18 04:00:00,34.0,30.3,29.96,SW,216,0.0,0.0,86,0.00,,,0.00,Wunderground v.1.15,2018-02-18 11:00:00,
2018-02-18 04:10:00,34.7,30.7,29.95,SW,223,0.0,0.0,85,0.00,,,0.00,Wunderground v.1.15,2018-02-18 11:10:00,
2018-02-18 04:15:00,35.0,30.7,29.95,SW,223,0.0,0.0,84,0.00,,,0.00,Wunderground v.1.15,2018-02-18 11:15:00,
2018-02-18 04:20:00,35.3,30.9,29.95,SW,223,0.0,0.0,84,0.00,,,0.00,Wunderground v.1.15,2018-02-18 11:20:00,
2018-02-18 04:25:00,35.5,30.8,29.95,SW,223,0.0,0.0,83,0.00,,,0.00,Wunderground v.1.15,2018-02-18 11:25:00,
2018-02-18 04:35:00,35.4,30.8,29.95,SW,223,0.0,0.0,83,0.00,,,0.00,Wunderground v.1.15,2018-02-18 11:35:00,
2018-02-18 04:40:00,35.6,30.9,29.95,SW,223,0.0,0.0,83,0.00,,,0.00,Wunderground v.1.15,2018-02-18 11:40:00,
2018-02-18 04:45:00,35.9,31.2,29.94,SW,223,0.0,0.0,83,0.00,,,0.00,Wunderground v.1.15,2018-02-18 11:45:00,
2018-02-18 04:50:00,35.9,31.2,29.94,SW,223,0.0,0.0,83,0.00,,,0.00,Wunderground v.1.15,2018-02-18 11:50:00,
2018-02-18 04:55:00,36.0,31.3,29.95,SW,223,0.0,0.0,83,0.00,,,0.00,Wunderground v.1.15,2018-02-18 11:55:00,
2018-02-18 05:00:00,35.9,31.2,29.94,SW,223,0.0,0.0,83,0.00,,,0.00,Wunderground v.1.15,2018-02-18 12:00:00,
2018-02-18 05:10:00,35.6,31.2,29.95,SW,223,0.0,0.0,84,0.00,,,0.00,Wunderground v.1.15,2018-02-18 12:10:00,
2018-02-18 05:15:00,35.7,31.3,29.95,SW,223,0.0,0.0,84,0.00,,,0.00,Wunderground v.1.15,2018-02-18 12:15:00,
2018-02-18 05:20:00,35.7,31.0,29.95,SW,223,0.0,0.0,83,0.00,,,0.00,Wunderground v.1.15,2018-02-18 12:20:00,
2018-02-18 05:25:00,35.7,31.0,29.95,SW,223,0.0,0.0,83,0.00,,,0.00,Wunderground v.1.15,2018-02-18 12:25:00,
2018-02-18 05:35:00,35.1,30.5,29.94,SW,223,0.0,0.0,83,0.00,,,0.00,Wunderground v.1.15,2018-02-18 12:35:00,
2018-02-18 05:40:00,34.5,29.9,29.95,SW,223,0.0,0.0,83,0.00,,,0.00,Wunderground v.1.15,2018-02-18 12:40:00,
2018-02-18 05:45:00,34.4,30.4,29.95,SW,223,0.0,0.0,85,0.00,,,0.00,Wunderground v.1.15,2018-02-18 12:45:00,
2018-02-18 05:50:00,34.3,30.3,29.95,SW,223,0.0,0.0,85,0.00,,,0.00,Wunderground v.1.15,2018-02-18 12:50:00,
2018-02-18 05:55:00,34.0,30.0,29.94,SW,223,0.0,0.0,85,0.00,,,0.00,Wunderground v.1.15,2018-02-18 12:55:00,
2018-02-18 06:00:00,33.6,29.6,29.95,SW,223,0.0,0.0,85,0.00,,,0.00,Wunderground v.1.15,2018-02-18 13:00:00,
2018-02-18 06:10:00,32.8,28.8,29.94,SW,223,0.0,0.0,85,0.00,,,0.00,Wunderground v.1.15,2018-02-18 13:10:00,
2018-02-18 06:15:00,32.5,28.8,29.94,SW,223,0.0,0.0,86,0.00,,,0.00,Wunderground v.1.15,2018-02-18 13:15:00,
2018-02-18 06:25:00,32.3,29.1,29.94,SW,223,0.0,0.0,88,0.00,,,0.00,Wunderground v.1.15,2018-02-18 13:25:00,
2018-02-18 06:30:00,32.1,28.9,29.94,SW,223,0.0,0.0,88,0.00,,,0.00,Wunderground v.1.15,2018-02-18 13:30:00,
2018-02-18 06:35:00,31.8,28.7,29.94,SW,223,0.0,0.0,88,0.00,,,0.00,Wunderground v.1.15,2018-02-18 13:35:00,
2018-02-18 06:40:00,31.5,28.4,29.94,SW,223,0.0,0.0,88,0.00,,,0.00,Wunderground v.1.15,2018-02-18 13:40:00,
2018-02-18 06:45:00,31.6,29.0,29.94,SW,223,0.0,0.0,90,0.00,,,0.00,Wunderground v.1.15,2018-02-18 13:45:00,
2018-02-18 06:55:00,31.7,29.1,29.94,SW,223,0.0,0.0,90,0.00,,,0.00,Wunderground v.1.15,2018-02-18 13:55:00,
2018-02-18 07:00:00,31.9,29.3,29.94,SW,223,0.0,0.0,90,0.00,,,0.00,Wunderground v.1.15,2018-02-18 14:00:00,
2018-02-18 07:10:00,32.6,30.3,29.94,SSW,209,0.0,1.0,91,0.00,,,0.00,Wunderground v.1.15,2018-02-18 14:10:00,
2018-02-18 07:20:00,33.5,30.9,29.93,SW,223,1.0,1.0,90,0.00,,,0.00,Wunderground v.1.15,2018-02-18 14:20:00,
2018-02-18 07:25:00,34.1,31.5,29.94,WSW,248,1.0,1.0,90,0.00,,,0.00,Wunderground v.1.15,2018-02-18 14:25:00,
2018-02-18 07:30:00,34.8,32.2,29.93,SSW,213,0.0,0.0,90,0.00,,,0.00,Wunderground v.1.15,2018-02-18 14:30:00,
2018-02-18 07:35:00,35.5,32.6,29.93,SSW,207,0.0,1.0,89,0.00,,,0.00,Wunderground v.1.15,2018-02-18 14:35:00,
2018-02-18 07:40:00,36.0,32.8,29.93,SW,227,1.0,1.0,88,0.00,,,0.00,Wunderground v.1.15,2018-02-18 14:40:00,
2018-02-18 07:50:00,37.1,33.9,29.93,SW,227,0.0,0.0,88,0.00,,,0.00,Wunderground v.1.15,2018-02-18 14:50:00,
2018-02-18 07:55:00,37.6,34.1,29.94,SSW,210,0.0,0.0,87,0.00,,,0.00,Wunderground v.1.15,2018-02-18 14:55:00,
2018-02-18 08:00:00,38.2,34.4,29.93,WSW,247,0.0,0.0,86,0.00,,,0.00,Wunderground v.1.15,2018-02-18 15:00:00,
2018-02-18 08:10:00,39.0,34.9,29.93,SW,233,0.0,0.0,85,0.00,,,0.00,Wunderground v.1.15,2018-02-18 15:10:00,
2018-02-18 08:15:00,39.4,35.3,29.94,SW,221,0.0,0.0,85,0.00,,,0.00,Wunderground v.1.15,2018-02-18 15:15:00,
2018-02-18 08:25:00,40.1,35.7,29.93,WSW,248,0.0,0.0,84,0.00,,,0.00,Wunderground v.1.15,2018-02-18 15:25:00,
2018-02-18 08:30:00,40.6,36.1,29.93,SSW,207,0.0,0.0,84,0.00,,,0.00,Wunderground v.1.15,2018-02-18 15:30:00,
2018-02-18 08:35:00,40.9,36.4,29.93,WSW,244,0.0,0.0,84,0.00,,,0.00,Wunderground v.1.15,2018-02-18 15:35:00,
2018-02-18 08:40:00,41.2,36.7,29.93,SSW,200,0.0,1.0,84,0.00,,,0.00,Wunderground v.1.15,2018-02-18 15:40:00,
2018-02-18 08:45:00,41.5,36.7,29.93,South,188,1.0,2.0,83,0.00,,,0.00,Wunderground v.1.15,2018-02-18 15:45:00,
2018-02-18 08:55:00,42.1,37.3,29.93,SSE,148,1.0,1.0,83,0.00,,,0.00,Wunderground v.1.15,2018-02-18 15:55:00,
2018-02-18 09:00:00,42.6,37.8,29.93,SW,217,0.0,0.0,83,0.00,,,0.00,Wunderground v.1.15,2018-02-18 16:00:00,
2018-02-18 09:10:00,44.4,39.9,29.93,SE,136,1.0,2.0,84,0.00,,,0.00,Wunderground v.1.15,2018-02-18 16:10:00,
2018-02-18 09:15:00,45.3,40.4,29.92,SSE,155,2.0,2.0,83,0.00,,,0.00,Wunderground v.1.15,2018-02-18 16:15:00,
2018-02-18 09:20:00,45.8,40.3,29.92,SW,217,4.0,4.0,81,0.00,,,0.00,Wunderground v.1.15,2018-02-18 16:20:00,
2018-02-18 09:30:00,47.0,41.1,29.92,SSE,160,3.0,4.0,80,0.00,,,0.00,Wunderground v.1.15,2018-02-18 16:30:00,
2018-02-18 09:35:00,47.8,41.3,29.91,SSW,205,3.0,4.0,78,0.00,,,0.00,Wunderground v.1.15,2018-02-18 16:35:00,
2018-02-18 09:40:00,48.5,40.9,29.91,South,186,2.0,2.0,75,0.00,,,0.00,Wunderground v.1.15,2018-02-18 16:40:00,
2018-02-18 09:45:00,48.6,41.0,29.91,WSW,237,4.0,4.0,75,0.00,,,0.00,Wunderground v.1.15,2018-02-18 16:45:00,
2018-02-18 09:50:00,48.9,41.0,29.91,ENE,78,4.0,4.0,74,0.00,,,0.00,Wunderground v.1.15,2018-02-18 16:50:00,
2018-02-18 10:00:00,49.8,40.8,29.90,SE,142,4.0,4.0,71,0.00,,,0.00,Wunderground v.1.15,2018-02-18 17:00:00,
2018-02-18 10:10:00,50.2,39.7,29.89,SSW,200,4.0,4.0,67,0.00,,,0.00,Wunderground v.1.15,2018-02-18 17:10:00,
2018-02-18 10:15:00,50.7,40.5,29.89,SSE,156,3.0,8.0,68,0.00,,,0.00,Wunderground v.1.15,2018-02-18 17:15:00,
2018-02-18 10:20:00,51.0,40.0,29.88,WSW,241,3.0,4.0,66,0.00,,,0.00,Wunderground v.1.15,2018-02-18 17:20:00,
2018-02-18 10:25:00,51.3,39.5,29.88,SSW,202,4.0,5.0,64,0.00,,,0.00,Wunderground v.1.15,2018-02-18 17:25:00,
2018-02-18 10:35:00,51.8,38.3,29.88,South,190,4.0,7.0,60,0.00,,,0.00,Wunderground v.1.15,2018-02-18 17:35:00,
2018-02-18 10:40:00,51.9,39.3,29.87,SSW,208,4.0,4.0,62,0.00,,,0.00,Wunderground v.1.15,2018-02-18 17:40:00,
2018-02-18 10:45:00,52.9,38.5,29.87,SSW,202,3.0,4.0,58,0.00,,,0.00,Wunderground v.1.15,2018-02-18 17:45:00,
2018-02-18 10:50:00,53.1,38.3,29.86,SSW,192,3.0,3.0,57,0.00,,,0.00,Wunderground v.1.15,2018-02-18 17:50:00,
2018-02-18 10:55:00,53.4,37.6,29.86,SE,132,4.0,4.0,55,0.00,,,0.00,Wunderground v.1.15,2018-02-18 17:55:00,
2018-02-18 11:00:00,53.9,37.1,29.86,SSE,164,4.0,6.0,53,0.00,,,0.00,Wunderground v.1.15,2018-02-18 18:00:00,
2018-02-18 11:10:00,53.9,37.6,29.84,SE,125,5.0,5.0,54,0.00,,,0.00,Wunderground v.1.15,2018-02-18 18:10:00,
2018-02-18 11:15:00,54.8,38.0,29.84,SSW,193,4.0,5.0,53,0.00,,,0.00,Wunderground v.1.15,2018-02-18 18:15:00,
2018-02-18 11:20:00,55.8,36.9,29.84,SW,232,5.0,10.0,49,0.00,,,0.00,Wunderground v.1.15,2018-02-18 18:20:00,
2018-02-18 11:25:00,56.3,36.3,29.84,SSW,209,6.0,13.0,47,0.00,,,0.00,Wunderground v.1.15,2018-02-18 18:25:00,
2018-02-18 11:30:00,56.4,36.4,29.83,SE,142,7.0,7.0,47,0.00,,,0.00,Wunderground v.1.15,2018-02-18 18:30:00,
2018-02-18 11:40:00,56.8,36.8,29.82,SE,130,7.0,8.0,47,0.00,,,0.00,Wunderground v.1.15,2018-02-18 18:40:00,
2018-02-18 11:45:00,56.7,36.7,29.82,South,191,7.0,8.0,47,0.00,,,0.00,Wunderground v.1.15,2018-02-18 18:45:00,
2018-02-18 11:50:00,57.3,37.2,29.81,SSW,194,6.0,6.0,47,0.00,,,0.00,Wunderground v.1.15,2018-02-18 18:50:00,
2018-02-18 11:55:00,57.5,36.9,29.81,SE,140,5.0,6.0,46,0.00,,,0.00,Wunderground v.1.15,2018-02-18 18:55:00,
2018-02-18 12:00:00,57.6,37.0,29.81,SW,222,6.0,6.0,46,0.00,,,0.00,Wunderground v.1.15,2018-02-18 19:00:00,
2018-02-18 12:10:00,58.2,36.9,29.81,West,269,5.0,5.0,45,0.00,,,0.00,Wunderground v.1.15,2018-02-18 19:10:00,
2018-02-18 12:15:00,58.7,38.0,29.80,WSW,254,4.0,5.0,46,0.00,,,0.00,Wunderground v.1.15,2018-02-18 19:15:00,
2018-02-18 12:20:00,59.3,38.5,29.79,WSW,257,4.0,6.0,46,0.00,,,0.00,Wunderground v.1.15,2018-02-18 19:20:00,
2018-02-18 12:25:00,59.2,37.9,29.79,West,260,4.0,6.0,45,0.00,,,0.00,Wunderground v.1.15,2018-02-18 19:25:00,
2018-02-18 12:30:00,58.9,38.7,29.79,SSW,202,5.0,6.0,47,0.00,,,0.00,Wunderground v.1.15,2018-02-18 19:30:00,
2018-02-18 12:35:00,59.3,39.1,29.78,SSW,209,5.0,6.0,47,0.00,,,0.00,Wunderground v.1.15,2018-02-18 19:35:00,
2018-02-18 12:45:00,60.2,38.8,29.76,SSE,163,7.0,7.0,45,0.00,,,0.00,Wunderground v.1.15,2018-02-18 19:45:00,
2018-02-18 12:50:00,60.6,39.1,29.76,SSE,149,8.0,8.0,45,0.00,,,0.00,Wunderground v.1.15,2018-02-18 19:50:00,
2018-02-18 12:55:00,61.0,39.5,29.76,SSE,168,7.0,8.0,45,0.00,,,0.00,Wunderground v.1.15,2018-02-18 19:55:00,
2018-02-18 13:00:00,60.9,38.2,29.75,SSW,210,7.0,7.0,43,0.00,,,0.00,Wunderground v.1.15,2018-02-18 20:00:00,
2018-02-18 13:10:00,61.2,40.2,29.74,SSW,208,7.0,7.0,46,0.00,,,0.00,Wunderground v.1.15,2018-02-18 20:10:00,
2018-02-18 13:15:00,61.2,40.2,29.74,SSW,211,7.0,7.0,46,0.00,,,0.00,Wunderground v.1.15,2018-02-18 20:15:00,
2018-02-18 13:20:00,61.6,40.6,29.73,SSE,166,7.0,9.0,46,0.00,,,0.00,Wunderground v.1.15,2018-02-18 20:20:00,
2018-02-18 13:25:00,61.5,41.1,29.73,SE,144,7.0,9.0,47,0.00,,,0.00,Wunderground v.1.15,2018-02-18 20:25:00,
2018-02-18 13:30:00,61.7,40.7,29.72,WSW,239,8.0,8.0,46,0.00,,,0.00,Wunderground v.1.15,2018-02-18 20:30:00,
2018-02-18 13:35:00,62.2,40.6,29.71,South,191,7.0,8.0,45,0.00,,,0.00,Wunderground v.1.15,2018-02-18 20:35:00,
2018-02-18 13:40:00,62.4,40.2,29.71,SSE,153,7.0,12.0,44,0.00,,,0.00,Wunderground v.1.15,2018-02-18 20:40:00,
2018-02-18 13:50:00,62.2,40.6,29.70,South,169,5.0,6.0,45,0.00,,,0.00,Wunderground v.1.15,2018-02-18 20:50:00,